createdAt,value
2023-05-09T00:00:45.182Z,3.33
2023-05-09T00:03:11.624Z,3.97
2023-05-09T00:05:38.346Z,5.47
2023-05-09T00:08:04.939Z,5.25
2023-05-09T00:10:31.298Z,4.38
2023-05-09T00:12:57.760Z,4.37
2023-05-09T00:15:24.168Z,4.55
2023-05-09T00:17:50.710Z,3.90
2023-05-09T00:20:17.227Z,4.50
2023-05-09T00:22:43.568Z,3.53
2023-05-09T00:25:10.931Z,3.70
2023-05-09T00:27:37.301Z,3.97
2023-05-09T00:30:04.414Z,4.05
2023-05-09T00:32:30.900Z,3.85
2023-05-09T00:34:58.001Z,3.85
2023-05-09T00:37:24.356Z,4.33
2023-05-09T00:39:50.713Z,4.50
2023-05-09T00:42:17.123Z,4.93
2023-05-09T00:44:43.477Z,4.50
2023-05-09T00:47:09.923Z,5.43
2023-05-09T00:49:36.326Z,3.70
2023-05-09T00:52:02.979Z,3.55
2023-05-09T00:54:29.594Z,5.65
2023-05-09T00:56:56.091Z,3.15
2023-05-09T00:59:22.513Z,4.00
2023-05-09T01:01:49.165Z,3.63
2023-05-09T01:04:15.767Z,3.25
2023-05-09T01:06:48.776Z,4.50
2023-05-09T01:09:33.711Z,2.95
2023-05-09T01:12:02.819Z,3.22
2023-05-09T01:14:29.176Z,3.60
2023-05-09T01:16:55.545Z,2.50
2023-05-09T01:19:40.620Z,2.85
2023-05-09T01:22:08.712Z,3.08
2023-05-09T01:24:48.436Z,3.40
2023-05-09T01:27:20.866Z,3.67
2023-05-09T01:29:47.955Z,3.08
2023-05-09T01:32:16.308Z,3.13
2023-05-09T01:34:43.973Z,3.42
2023-05-09T01:37:11.026Z,3.58
2023-05-09T01:39:38.628Z,4.73
2023-05-09T01:42:07.267Z,3.83
2023-05-09T01:44:38.210Z,3.80
2023-05-09T01:47:04.594Z,3.90
2023-05-09T01:49:31.510Z,4.55
2023-05-09T01:51:58.377Z,4.50
2023-05-09T01:54:25.569Z,4.15
2023-05-09T01:56:53.140Z,4.97
2023-05-09T01:59:20.430Z,4.50
2023-05-09T02:01:47.044Z,5.15
2023-05-09T02:04:15.761Z,5.10
2023-05-09T02:06:43.437Z,3.30
2023-05-09T02:09:10.264Z,2.70
2023-05-09T02:11:36.805Z,3.72
2023-05-09T02:14:03.186Z,3.42
2023-05-09T02:16:29.751Z,2.97
2023-05-09T02:18:56.147Z,4.55
2023-05-09T02:21:22.502Z,4.43
2023-05-09T02:23:48.906Z,3.88
2023-05-09T02:26:15.412Z,3.95
2023-05-09T02:28:43.164Z,3.63
2023-05-09T02:31:10.877Z,3.65
2023-05-09T02:33:37.969Z,4.43
2023-05-09T02:36:04.772Z,4.95
2023-05-09T02:38:31.522Z,5.00
2023-05-09T02:40:58.000Z,4.80
2023-05-09T02:43:24.346Z,3.47
2023-05-09T02:45:50.699Z,5.95
2023-05-09T02:48:17.155Z,3.83
2023-05-09T02:50:43.509Z,6.40
2023-05-09T02:53:10.014Z,5.17
2023-05-09T02:55:36.409Z,4.05
2023-05-09T02:58:13.467Z,2.83
2023-05-09T03:00:40.926Z,4.43
2023-05-09T03:03:07.368Z,4.75
2023-05-09T03:05:33.773Z,4.63
2023-05-09T03:08:00.249Z,5.30
2023-05-09T03:10:26.618Z,4.88
2023-05-09T03:12:53.010Z,4.97
2023-05-09T03:15:20.133Z,4.60
2023-05-09T03:17:46.589Z,3.90
2023-05-09T03:20:13.321Z,4.15
2023-05-09T03:22:39.812Z,4.55
2023-05-09T03:25:06.316Z,4.57
2023-05-09T03:27:32.703Z,3.95
2023-05-09T03:29:59.124Z,4.63
2023-05-09T03:32:26.430Z,5.45
2023-05-09T03:34:52.805Z,3.85
2023-05-09T03:37:19.191Z,4.45
2023-05-09T03:39:46.220Z,5.45
2023-05-09T03:42:12.565Z,3.43
2023-05-09T03:44:39.096Z,8.63
2023-05-09T03:47:05.465Z,6.95
2023-05-09T03:49:31.863Z,8.65
2023-05-09T03:51:58.292Z,8.23
2023-05-09T03:54:24.621Z,9.33
2023-05-09T03:56:51.419Z,7.68
2023-05-09T03:59:17.780Z,5.95
2023-05-09T04:01:44.222Z,8.10
2023-05-09T04:04:10.707Z,9.45
2023-05-09T04:06:37.149Z,9.67
2023-05-09T04:09:03.594Z,10.10
2023-05-09T04:11:29.921Z,11.05
2023-05-09T04:13:56.359Z,11.77
2023-05-09T04:16:22.725Z,11.40
2023-05-09T04:18:49.120Z,9.87
2023-05-09T04:21:15.561Z,9.95
2023-05-09T04:23:41.888Z,10.38
2023-05-09T04:26:08.225Z,11.82
2023-05-09T04:28:34.590Z,11.90
2023-05-09T04:31:01.025Z,11.07
2023-05-09T04:33:27.438Z,10.80
2023-05-09T04:35:54.191Z,11.15
2023-05-09T04:38:20.532Z,10.00
2023-05-09T04:40:46.953Z,10.70
2023-05-09T04:43:13.417Z,10.10
2023-05-09T04:45:39.818Z,9.95
2023-05-09T04:48:06.236Z,11.02
2023-05-09T04:50:32.728Z,8.82
2023-05-09T04:52:59.109Z,10.20
2023-05-09T04:55:26.274Z,10.07
2023-05-09T04:57:52.732Z,10.00
2023-05-09T05:00:19.209Z,10.85
2023-05-09T05:02:45.599Z,11.10
2023-05-09T05:05:12.730Z,9.07
2023-05-09T05:07:39.433Z,8.37
2023-05-09T05:10:06.591Z,8.15
2023-05-09T05:12:33.161Z,9.93
2023-05-09T05:14:59.638Z,9.60
2023-05-09T05:17:26.054Z,9.00
2023-05-09T05:19:52.669Z,9.33
2023-05-09T05:22:19.133Z,6.20
2023-05-09T05:24:45.605Z,4.10
2023-05-09T05:27:12.128Z,5.65
2023-05-09T05:29:38.575Z,3.58
2023-05-09T05:32:04.963Z,6.77
2023-05-09T05:34:31.437Z,4.90
2023-05-09T05:36:57.918Z,6.88
2023-05-09T05:39:24.394Z,6.68
2023-05-09T05:41:51.023Z,6.88
2023-05-09T05:44:17.374Z,5.97
2023-05-09T05:46:43.743Z,5.05
2023-05-09T05:49:10.173Z,4.45
2023-05-09T05:51:36.520Z,5.00
2023-05-09T05:54:02.889Z,3.95
2023-05-09T05:56:30.055Z,3.37
2023-05-09T05:58:57.434Z,5.15
2023-05-09T06:01:23.799Z,3.30
2023-05-09T06:03:50.367Z,5.60
2023-05-09T06:06:16.800Z,5.28
2023-05-09T06:08:43.154Z,5.22
2023-05-09T06:11:09.617Z,6.85
2023-05-09T06:13:35.978Z,4.30
2023-05-09T06:16:15.070Z,2.90
2023-05-09T06:18:45.542Z,3.15
2023-05-09T06:21:12.109Z,3.05
2023-05-09T06:23:44.664Z,2.47
2023-05-09T06:26:17.192Z,4.10
2023-05-09T06:28:43.554Z,2.88
2023-05-09T06:31:10.029Z,4.65
2023-05-09T06:33:36.551Z,2.28
2023-05-09T06:36:02.911Z,2.42
2023-05-09T06:38:29.282Z,2.90
2023-05-09T06:40:55.742Z,2.70
2023-05-09T06:43:22.141Z,3.22
2023-05-09T06:45:48.496Z,2.10
2023-05-09T06:48:14.983Z,1.83
2023-05-09T06:50:41.320Z,1.80
2023-05-09T06:53:07.662Z,2.17
2023-05-09T06:55:34.073Z,2.05
2023-05-09T06:58:00.910Z,3.20
2023-05-09T07:00:27.300Z,4.28
2023-05-09T07:02:53.834Z,3.20
2023-05-09T07:05:20.303Z,2.58
2023-05-09T07:07:46.673Z,2.58
2023-05-09T07:10:13.062Z,2.08
2023-05-09T07:12:40.097Z,2.30
2023-05-09T07:15:06.891Z,2.83
2023-05-09T07:17:33.551Z,4.15
2023-05-09T07:19:59.929Z,2.80
2023-05-09T07:22:26.310Z,2.10
2023-05-09T07:24:52.775Z,4.53
2023-05-09T07:27:19.137Z,2.40
2023-05-09T07:29:45.482Z,2.63
2023-05-09T07:32:12.156Z,1.95
2023-05-09T07:34:38.583Z,3.22
2023-05-09T07:37:04.926Z,4.20
2023-05-09T07:39:31.504Z,2.50
2023-05-09T07:41:57.842Z,2.40
2023-05-09T07:44:24.298Z,2.63
2023-05-09T07:46:50.728Z,2.40
2023-05-09T07:49:17.069Z,2.90
2023-05-09T07:51:43.390Z,2.80
2023-05-09T07:54:09.815Z,3.00
2023-05-09T07:56:36.275Z,2.85
2023-05-09T07:59:02.716Z,3.42
2023-05-09T08:01:29.127Z,4.20
2023-05-09T08:03:55.611Z,3.53
2023-05-09T08:06:22.100Z,3.03
2023-05-09T08:08:48.568Z,2.92
2023-05-09T08:11:14.927Z,2.80
2023-05-09T08:13:41.289Z,3.00
2023-05-09T08:16:07.853Z,3.63
2023-05-09T08:18:34.243Z,3.17
2023-05-09T08:21:00.602Z,2.80
2023-05-09T08:23:27.149Z,6.72
2023-05-09T08:25:53.970Z,5.88
2023-05-09T08:28:23.030Z,4.10
2023-05-09T08:30:50.420Z,5.00
2023-05-09T08:33:17.035Z,10.25
2023-05-09T08:35:43.382Z,3.95
2023-05-09T08:38:09.783Z,5.28
2023-05-09T08:40:36.756Z,4.23
2023-05-09T08:43:06.636Z,5.00
2023-05-09T08:45:35.105Z,3.72
2023-05-09T08:48:04.582Z,3.40
2023-05-09T08:50:30.940Z,4.93
2023-05-09T08:52:57.459Z,5.10
2023-05-09T08:55:24.875Z,5.10
2023-05-09T08:57:52.479Z,3.78
2023-05-09T09:00:20.645Z,5.85
2023-05-09T09:02:47.487Z,5.10
2023-05-09T09:05:34.264Z,3.90
2023-05-09T09:08:00.566Z,3.67
2023-05-09T09:10:29.285Z,3.72
2023-05-09T09:12:57.063Z,3.20
2023-05-09T09:15:25.000Z,3.75
2023-05-09T09:17:51.578Z,4.07
2023-05-09T09:20:21.366Z,4.30
2023-05-09T09:22:48.147Z,4.50
2023-05-09T09:25:14.515Z,3.45
2023-05-09T09:27:40.882Z,3.42
2023-05-09T09:30:12.444Z,4.63
2023-05-09T09:32:38.881Z,3.60
2023-05-09T09:35:09.304Z,4.28
2023-05-09T09:37:36.459Z,3.88
2023-05-09T09:40:03.304Z,3.30
2023-05-09T09:42:41.941Z,3.77
2023-05-09T09:45:15.948Z,3.30
2023-05-09T09:47:46.320Z,4.22
2023-05-09T09:50:19.346Z,3.38
2023-05-09T09:52:50.890Z,3.33
2023-05-09T09:55:18.164Z,2.60
2023-05-09T09:57:44.905Z,2.88
2023-05-09T10:00:15.232Z,3.17
2023-05-09T10:02:50.871Z,2.97
2023-05-09T10:05:27.865Z,2.90
2023-05-09T10:07:58.624Z,3.30
2023-05-09T10:10:29.503Z,3.05
2023-05-09T10:13:01.930Z,2.90
2023-05-09T10:15:33.450Z,4.40
2023-05-09T10:18:05.096Z,4.38
2023-05-09T10:20:31.989Z,8.87
2023-05-09T10:23:00.993Z,5.53
2023-05-09T10:25:38.739Z,2.42
2023-05-09T10:28:08.332Z,2.63
2023-05-09T10:30:36.292Z,3.92
2023-05-09T10:33:03.979Z,2.00
2023-05-09T10:35:32.948Z,2.30
2023-05-09T10:37:59.800Z,2.03
2023-05-09T10:40:27.656Z,4.28
2023-05-09T10:42:54.382Z,3.58
2023-05-09T10:45:21.459Z,2.13
2023-05-09T10:47:48.619Z,3.53
2023-05-09T10:50:15.901Z,3.80
2023-05-09T10:53:04.885Z,2.30
2023-05-09T10:55:39.990Z,8.20
2023-05-09T10:58:41.722Z,2.30
2023-05-09T11:01:08.124Z,2.70
2023-05-09T11:03:56.434Z,2.13
2023-05-09T11:06:41.184Z,2.88
2023-05-09T11:09:25.771Z,2.17
2023-05-09T11:11:52.577Z,4.03
2023-05-09T11:14:38.103Z,2.40
2023-05-09T11:17:30.762Z,2.30
2023-05-09T11:20:00.308Z,2.80
2023-05-09T11:22:30.303Z,2.17
2023-05-09T11:25:02.037Z,1.93
2023-05-09T11:27:28.884Z,2.33
2023-05-09T11:29:56.230Z,3.03
2023-05-09T11:32:27.982Z,2.58
2023-05-09T11:35:09.515Z,3.20
2023-05-09T11:38:05.372Z,2.07
2023-05-09T11:40:32.374Z,3.63
2023-05-09T11:42:59.323Z,2.75
2023-05-09T11:45:27.317Z,2.90
2023-05-09T11:47:53.758Z,1.98
2023-05-09T11:50:20.647Z,1.80
2023-05-09T11:52:48.137Z,1.40
2023-05-09T11:55:15.958Z,1.52
2023-05-09T11:57:49.896Z,1.75
2023-05-09T12:00:17.097Z,1.33
2023-05-09T12:02:44.018Z,3.47
2023-05-09T12:05:11.260Z,3.40
2023-05-09T12:07:37.923Z,1.88
2023-05-09T12:10:05.639Z,1.70
2023-05-09T12:12:33.680Z,1.90
2023-05-09T12:15:02.276Z,1.97
2023-05-09T12:17:29.033Z,2.10
2023-05-09T12:19:55.460Z,2.05
2023-05-09T12:22:21.834Z,2.53
2023-05-09T12:24:49.279Z,2.20
2023-05-09T12:27:15.699Z,2.07
2023-05-09T12:29:42.161Z,2.67
2023-05-09T12:32:08.541Z,2.08
2023-05-09T12:34:34.976Z,2.10
2023-05-09T12:37:01.349Z,2.35
2023-05-09T12:39:27.731Z,1.97
2023-05-09T12:42:01.674Z,2.20
2023-05-09T12:44:28.531Z,1.50
2023-05-09T12:46:55.948Z,2.10
2023-05-09T12:49:25.525Z,1.67
2023-05-09T12:51:52.548Z,3.23
2023-05-09T12:54:28.950Z,1.55
2023-05-09T12:56:56.895Z,2.38
2023-05-09T12:59:26.569Z,3.00
2023-05-09T13:01:53.858Z,2.63
2023-05-09T13:04:20.960Z,1.80
2023-05-09T13:06:47.959Z,1.65
2023-05-09T13:09:14.531Z,1.60
2023-05-09T13:11:41.119Z,1.80
2023-05-09T13:14:08.136Z,2.08
2023-05-09T13:16:35.298Z,2.30
2023-05-09T13:19:01.819Z,2.50
2023-05-09T13:21:28.219Z,2.33
2023-05-09T13:23:54.607Z,2.08
2023-05-09T13:26:21.022Z,2.00
2023-05-09T13:28:47.353Z,1.93
2023-05-09T13:31:13.826Z,2.15
2023-05-09T13:33:40.228Z,1.65
2023-05-09T13:36:06.668Z,1.65
2023-05-09T13:38:33.110Z,2.38
2023-05-09T13:41:00.244Z,1.93
2023-05-09T13:43:26.731Z,1.50
2023-05-09T13:45:53.208Z,1.52
2023-05-09T13:48:19.682Z,2.25
2023-05-09T13:50:46.361Z,1.73
2023-05-09T13:53:12.821Z,1.60
2023-05-09T13:55:39.476Z,1.88
2023-05-09T13:58:05.977Z,1.48
2023-05-09T14:00:32.885Z,1.80
2023-05-09T14:02:59.251Z,1.83
2023-05-09T14:05:25.678Z,2.23
2023-05-09T14:07:52.092Z,2.15
2023-05-09T14:10:18.649Z,1.85
2023-05-09T14:12:45.181Z,1.70
2023-05-09T14:15:11.631Z,3.63
2023-05-09T14:17:38.091Z,3.83
2023-05-09T14:20:04.662Z,3.38
2023-05-09T14:22:31.131Z,3.05
2023-05-09T14:24:57.575Z,2.15
2023-05-09T14:27:24.087Z,2.05
2023-05-09T14:29:50.678Z,2.13
2023-05-09T14:32:17.035Z,2.88
2023-05-09T14:34:43.457Z,2.30
2023-05-09T14:37:10.073Z,3.85
2023-05-09T14:39:36.417Z,2.70
2023-05-09T14:42:02.760Z,2.90
2023-05-09T14:44:29.221Z,2.80
2023-05-09T14:46:55.625Z,3.92
2023-05-09T14:49:21.995Z,3.00
2023-05-09T14:51:48.364Z,3.65
2023-05-09T14:54:14.736Z,3.50
2023-05-09T14:56:41.294Z,3.72
2023-05-09T14:59:07.719Z,3.00
2023-05-09T15:01:34.147Z,2.70
2023-05-09T15:04:00.642Z,6.28
2023-05-09T15:06:27.134Z,7.80
2023-05-09T15:08:53.492Z,8.68
2023-05-09T15:11:19.862Z,10.63
2023-05-09T15:13:46.281Z,9.23
2023-05-09T15:16:12.661Z,10.50
2023-05-09T15:18:39.082Z,11.03
2023-05-09T15:21:05.523Z,7.72
2023-05-09T15:23:31.930Z,6.72
2023-05-09T15:25:58.338Z,3.17
2023-05-09T15:28:24.757Z,3.40
2023-05-09T15:30:51.124Z,4.33
2023-05-09T15:33:17.493Z,1.85
2023-05-09T15:35:43.932Z,1.42
2023-05-09T15:38:10.940Z,1.85
2023-05-09T15:40:37.536Z,1.63
2023-05-09T15:43:05.906Z,1.10
2023-05-09T15:45:33.708Z,1.85
2023-05-09T15:48:00.149Z,2.85
2023-05-09T15:50:26.638Z,3.13
2023-05-09T15:52:52.980Z,4.47
2023-05-09T15:55:19.385Z,3.00
2023-05-09T15:57:45.976Z,2.90
2023-05-09T16:00:12.727Z,3.90
2023-05-09T16:02:39.291Z,4.22
2023-05-09T16:05:06.012Z,4.70
2023-05-09T16:07:33.375Z,5.07
2023-05-09T16:10:01.893Z,4.82
2023-05-09T16:12:28.531Z,6.40
2023-05-09T16:14:54.885Z,6.53
2023-05-09T16:17:21.233Z,6.10
2023-05-09T16:19:47.742Z,4.90
2023-05-09T16:22:14.114Z,5.70
2023-05-09T16:24:40.481Z,5.10
2023-05-09T16:27:06.909Z,5.97
2023-05-09T16:29:33.257Z,7.85
2023-05-09T16:31:59.683Z,12.37
2023-05-09T16:34:26.116Z,9.73
2023-05-09T16:36:52.484Z,5.00
2023-05-09T16:39:18.954Z,5.03
2023-05-09T16:41:45.401Z,6.07
2023-05-09T16:44:11.804Z,8.33
2023-05-09T16:46:38.154Z,6.47
2023-05-09T16:49:04.540Z,6.05
2023-05-09T16:51:30.923Z,6.65
2023-05-09T16:53:57.278Z,6.20
2023-05-09T16:56:23.694Z,5.90
2023-05-09T16:58:50.435Z,5.30
2023-05-09T17:03:43.129Z,3.05
2023-05-09T17:06:09.477Z,2.70
2023-05-09T17:08:35.882Z,5.15
2023-05-09T17:11:02.243Z,4.82
2023-05-09T17:13:28.705Z,2.83
2023-05-09T17:15:55.124Z,3.30
2023-05-09T17:18:33.205Z,2.47
2023-05-09T17:21:02.823Z,3.00
2023-05-09T17:23:29.175Z,2.38
2023-05-09T17:25:55.513Z,2.65
2023-05-09T17:28:21.878Z,2.30
2023-05-09T17:30:48.302Z,2.20
2023-05-09T17:33:14.654Z,2.67
2023-05-09T17:35:41.003Z,3.10
2023-05-09T17:38:07.387Z,3.20
2023-05-09T17:40:33.995Z,3.50
2023-05-09T17:43:00.329Z,3.97
2023-05-09T17:45:26.724Z,3.78
2023-05-09T17:47:53.066Z,3.25
2023-05-09T17:50:19.458Z,2.05
2023-05-09T17:52:45.833Z,2.88
2023-05-09T17:55:12.222Z,5.90
2023-05-09T17:57:38.972Z,9.65
2023-05-09T18:00:05.766Z,9.85
2023-05-09T18:02:32.238Z,7.00
2023-05-09T18:04:58.793Z,2.50
2023-05-09T18:07:25.203Z,3.22
2023-05-09T18:09:51.598Z,1.90
2023-05-09T18:12:18.023Z,1.85
2023-05-09T18:14:44.503Z,4.07
2023-05-09T18:17:10.893Z,5.57
2023-05-09T18:19:37.280Z,6.93
2023-05-09T18:22:03.789Z,8.85
2023-05-09T18:24:30.150Z,10.55
2023-05-09T18:26:56.489Z,9.93
2023-05-09T18:29:22.880Z,9.80
2023-05-09T18:31:49.338Z,11.55
2023-05-09T18:34:15.796Z,8.48
2023-05-09T18:36:42.237Z,10.02
2023-05-09T18:39:08.596Z,9.23
2023-05-09T18:41:34.964Z,9.50
2023-05-09T18:44:01.349Z,10.32
2023-05-09T18:46:27.860Z,11.73
2023-05-09T18:48:54.340Z,11.60
2023-05-09T18:51:20.724Z,11.68
2023-05-09T18:53:47.141Z,6.38
2023-05-09T18:56:13.737Z,9.75
2023-05-09T18:58:40.166Z,11.35
2023-05-09T19:01:06.623Z,10.55
2023-05-09T19:03:32.978Z,10.18
2023-05-09T19:05:59.430Z,7.57
2023-05-09T19:08:25.819Z,5.45
2023-05-09T19:10:52.167Z,5.40
2023-05-09T19:13:18.631Z,6.13
2023-05-09T19:15:45.064Z,6.72
2023-05-09T19:18:11.515Z,7.70
2023-05-09T19:20:38.046Z,7.03
2023-05-09T19:23:04.408Z,6.97
2023-05-09T19:25:30.762Z,8.82
2023-05-09T19:27:59.812Z,6.95
2023-05-09T19:30:26.240Z,5.45
2023-05-09T19:32:53.099Z,5.38
2023-05-09T19:35:19.954Z,5.43
2023-05-09T19:37:48.808Z,5.78
2023-05-09T19:40:15.352Z,9.43
2023-05-09T19:42:45.016Z,7.18
2023-05-09T19:45:11.631Z,5.60
2023-05-09T19:47:38.137Z,5.63
2023-05-09T19:50:04.729Z,5.03
2023-05-09T19:52:31.109Z,4.25
2023-05-09T19:54:57.579Z,4.78
2023-05-09T19:57:23.988Z,6.63
2023-05-09T19:59:50.332Z,6.60
2023-05-09T20:02:16.754Z,4.97
2023-05-09T20:04:44.940Z,5.03
2023-05-09T20:07:11.356Z,5.15
2023-05-09T20:09:37.730Z,5.70
2023-05-09T20:12:04.327Z,4.70
2023-05-09T20:14:30.939Z,6.00
2023-05-09T20:16:57.656Z,4.95
2023-05-09T20:19:24.134Z,6.28
2023-05-09T20:21:50.597Z,6.25
2023-05-09T20:24:16.953Z,5.88
2023-05-09T20:26:43.592Z,4.38
2023-05-09T20:29:10.014Z,5.63
2023-05-09T20:31:36.381Z,4.13
2023-05-09T20:34:02.882Z,3.28
2023-05-09T20:36:29.241Z,5.43
2023-05-09T20:38:55.954Z,4.82
2023-05-09T20:41:22.571Z,4.13
2023-05-09T20:43:49.086Z,4.65
2023-05-09T20:46:15.689Z,4.43
2023-05-09T20:48:45.029Z,4.65
2023-05-09T20:51:11.506Z,5.03
2023-05-09T20:53:37.958Z,4.38
2023-05-09T20:56:06.788Z,3.25
2023-05-09T20:58:33.830Z,4.07
2023-05-09T21:01:00.308Z,3.70
2023-05-09T21:03:26.865Z,3.50
2023-05-09T21:05:53.542Z,4.75
2023-05-09T21:08:19.895Z,3.95
2023-05-09T21:10:46.315Z,4.05
2023-05-09T21:13:12.771Z,3.20
2023-05-09T21:15:39.376Z,3.78
2023-05-09T21:18:06.220Z,4.63
2023-05-09T21:20:32.607Z,4.60
2023-05-09T21:22:59.000Z,3.70
2023-05-09T21:25:25.415Z,3.33
2023-05-09T21:27:51.785Z,3.42
2023-05-09T21:30:18.318Z,3.50
2023-05-09T21:32:44.868Z,3.65
2023-05-09T21:35:11.231Z,4.03
2023-05-09T21:37:37.598Z,2.47
2023-05-09T21:40:05.708Z,2.10
2023-05-09T21:42:32.326Z,2.58
2023-05-09T21:44:58.664Z,3.85
2023-05-09T21:47:25.269Z,3.70
2023-05-09T21:49:51.766Z,3.83
2023-05-09T21:52:18.114Z,3.20
2023-05-09T21:54:44.756Z,2.92
2023-05-09T21:57:11.482Z,3.20
2023-05-09T21:59:37.971Z,3.53
2023-05-09T22:02:04.476Z,4.10
2023-05-09T22:04:30.888Z,4.20
2023-05-09T22:06:57.226Z,3.28
2023-05-09T22:09:23.658Z,3.72
2023-05-09T22:11:50.050Z,3.63
2023-05-09T22:14:16.399Z,4.45
2023-05-09T22:16:42.893Z,5.18
2023-05-09T22:19:09.383Z,5.22
2023-05-09T22:21:35.750Z,4.18
2023-05-09T22:24:02.181Z,5.13
2023-05-09T22:26:28.534Z,4.28
2023-05-09T22:28:54.882Z,20.98
2023-05-09T22:31:21.299Z,4.10
2023-05-09T22:33:47.635Z,3.97
2023-05-09T22:36:13.970Z,3.15
2023-05-09T22:38:40.386Z,4.63
2023-05-09T22:41:06.730Z,3.80
2023-05-09T22:43:38.611Z,3.95
2023-05-09T22:46:06.287Z,3.60
2023-05-09T22:48:32.726Z,4.18
2023-05-09T22:50:59.127Z,4.00
2023-05-09T22:53:25.555Z,4.22
2023-05-09T22:55:52.003Z,3.88
2023-05-09T22:58:18.623Z,4.65
2023-05-09T23:00:45.042Z,4.68
2023-05-09T23:03:11.512Z,4.30
2023-05-09T23:05:37.985Z,3.88
2023-05-09T23:08:04.409Z,2.95
2023-05-09T23:10:30.757Z,3.40
2023-05-09T23:12:57.158Z,3.55
2023-05-09T23:15:23.616Z,3.38
2023-05-09T23:17:50.119Z,3.55
2023-05-09T23:20:16.827Z,3.88
2023-05-09T23:22:43.435Z,3.90
2023-05-09T23:25:09.840Z,4.00
2023-05-09T23:27:36.209Z,4.50
2023-05-09T23:30:02.635Z,4.28
2023-05-09T23:32:29.010Z,3.92
2023-05-09T23:34:55.385Z,3.97
2023-05-09T23:37:21.851Z,3.53
2023-05-09T23:39:48.194Z,2.65
2023-05-09T23:42:14.527Z,3.35
2023-05-09T23:44:40.985Z,3.67
2023-05-09T23:47:07.471Z,2.47
2023-05-09T23:49:33.831Z,3.35
2023-05-09T23:52:00.487Z,4.90
2023-05-09T23:54:26.845Z,5.00
2023-05-09T23:56:53.420Z,3.55
2023-05-09T23:59:19.877Z,4.15
